sensor_id;sensor_type;location;lat;lon;timestamp;pressure;altitude;pressure_sealevel;temperature;humidity
45247;BME280;31529;51.158;7.354;2023-05-06T00:00:20;98008.19;;;13.56;100.00
45247;BME280;31529;51.158;7.354;2023-05-06T00:00:52;98010.88;;;13.56;100.00
45247;BME280;31529;51.158;7.354;2023-05-06T00:01:23;98007.41;;;13.55;100.00
45247;BME280;31529;51.158;7.354;2023-05-06T00:01:54;98006.63;;;13.55;100.00
45247;BME280;31529;51.158;7.354;2023-05-06T00:02:25;98010.38;;;13.54;100.00
45247;BME280;31529;51.158;7.354;2023-05-06T00:02:59;98011.16;;;13.54;100.00
45247;BME280;31529;51.158;7.354;2023-05-06T00:03:30;98008.47;;;13.54;100.00
45247;BME280;31529;51.158;7.354;2023-05-06T00:04:02;98016.53;;;13.54;100.00
45247;BME280;31529;51.158;7.354;2023-05-06T00:04:33;98014.94;;;13.53;100.00
45247;BME280;31529;51.158;7.354;2023-05-06T00:05:04;98011.16;;;13.54;100.00
45247;BME280;31529;51.158;7.354;2023-05-06T00:05:35;98009.59;;;13.53;100.00
45247;BME280;31529;51.158;7.354;2023-05-06T00:06:06;98013.06;;;13.54;100.00
45247;BME280;31529;51.158;7.354;2023-05-06T00:06:38;98008.47;;;13.54;100.00
45247;BME280;31529;51.158;7.354;2023-05-06T00:07:09;98006.91;;;13.53;100.00
45247;BME280;31529;51.158;7.354;2023-05-06T00:07:41;98010.38;;;13.54;100.00
45247;BME280;31529;51.158;7.354;2023-05-06T00:08:12;98010.38;;;13.54;100.00
45247;BME280;31529;51.158;7.354;2023-05-06T00:08:43;98010.38;;;13.54;100.00
45247;BME280;31529;51.158;7.354;2023-05-06T00:09:15;97932.63;;;13.03;100.00
45247;BME280;31529;51.158;7.354;2023-05-06T00:09:47;98009.28;;;13.55;100.00
45247;BME280;31529;51.158;7.354;2023-05-06T00:10:18;98007.41;;;13.55;100.00
45247;BME280;31529;51.158;7.354;2023-05-06T00:10:49;98011.97;;;13.55;100.00
45247;BME280;31529;51.158;7.354;2023-05-06T00:11:20;98008.19;;;13.56;100.00
45247;BME280;31529;51.158;7.354;2023-05-06T00:11:51;98010.06;;;13.55;100.00
45247;BME280;31529;51.158;7.354;2023-05-06T00:12:22;98007.09;;;13.57;100.00
45247;BME280;31529;51.158;7.354;2023-05-06T00:12:53;98008.97;;;13.56;100.00
45247;BME280;31529;51.158;7.354;2023-05-06T00:13:24;98006.28;;;13.56;100.00
45247;BME280;31529;51.158;7.354;2023-05-06T00:13:55;98007.09;;;13.57;100.00
45247;BME280;31529;51.158;7.354;2023-05-06T00:14:27;98003.31;;;13.58;100.00
45247;BME280;31529;51.158;7.354;2023-05-06T00:14:58;98003.31;;;13.58;100.00
45247;BME280;31529;51.158;7.354;2023-05-06T00:15:29;98006.00;;;13.58;100.00
45247;BME280;31529;51.158;7.354;2023-05-06T00:16:00;97999.84;;;13.57;100.00
45247;BME280;31529;51.158;7.354;2023-05-06T00:16:31;98000.94;;;13.56;100.00
45247;BME280;31529;51.158;7.354;2023-05-06T00:17:02;98007.09;;;13.57;100.00
45247;BME280;31529;51.158;7.354;2023-05-06T00:17:33;97997.47;;;13.56;100.00
45247;BME280;31529;51.158;7.354;2023-05-06T00:18:04;98001.25;;;13.55;100.00
45247;BME280;31529;51.158;7.354;2023-05-06T00:18:36;98000.44;;;13.54;100.00
45247;BME280;31529;51.158;7.354;2023-05-06T00:19:07;98005.00;;;13.54;100.00
45247;BME280;31529;51.158;7.354;2023-05-06T00:19:39;98005.00;;;13.54;100.00
45247;BME280;31529;51.158;7.354;2023-05-06T00:20:10;97996.97;;;13.54;100.00
45247;BME280;31529;51.158;7.354;2023-05-06T00:20:42;97997.75;;;13.54;100.00
45247;BME280;31529;51.158;7.354;2023-05-06T00:21:13;98001.53;;;13.53;100.00
45247;BME280;31529;51.158;7.354;2023-05-06T00:21:44;98005.31;;;13.52;100.00
45247;BME280;31529;51.158;7.354;2023-05-06T00:22:15;98000.75;;;13.53;100.00
45247;BME280;31529;51.158;7.354;2023-05-06T00:22:46;97998.88;;;13.53;100.00
45247;BME280;31529;51.158;7.354;2023-05-06T00:23:17;97998.88;;;13.53;100.00
45247;BME280;31529;51.158;7.354;2023-05-06T00:23:49;98000.75;;;13.53;100.00
45247;BME280;31529;51.158;7.354;2023-05-06T00:24:20;98001.53;;;13.53;100.00
45247;BME280;31529;51.158;7.354;2023-05-06T00:24:51;98002.63;;;13.52;100.00
45247;BME280;31529;51.158;7.354;2023-05-06T00:25:22;98002.63;;;13.52;100.00
45247;BME280;31529;51.158;7.354;2023-05-06T00:25:53;97998.88;;;13.53;100.00
45247;BME280;31529;51.158;7.354;2023-05-06T00:26:24;98005.78;;;13.54;100.00
45247;BME280;31529;51.158;7.354;2023-05-06T00:26:55;98003.13;;;13.54;100.00
45247;BME280;31529;51.158;7.354;2023-05-06T00:27:27;98005.78;;;13.54;100.00
45247;BME280;31529;51.158;7.354;2023-05-06T00:27:59;97996.38;;;13.57;100.00
45247;BME280;31529;51.158;7.354;2023-05-06T00:28:30;98006.00;;;13.58;100.00
45247;BME280;31529;51.158;7.354;2023-05-06T00:29:01;97994.47;;;13.57;100.00
45247;BME280;31529;51.158;7.354;2023-05-06T00:29:32;98006.81;;;13.58;100.00
45247;BME280;31529;51.158;7.354;2023-05-06T00:30:04;97998.75;;;13.58;100.00
45247;BME280;31529;51.158;7.354;2023-05-06T00:30:35;97996.88;;;13.59;100.00
45247;BME280;31529;51.158;7.354;2023-05-06T00:31:07;97997.94;;;13.58;100.00
45247;BME280;31529;51.158;7.354;2023-05-06T00:31:39;97994.47;;;13.57;100.00
45247;BME280;31529;51.158;7.354;2023-05-06T00:32:10;97990.53;;;13.55;100.00
45247;BME280;31529;51.158;7.354;2023-05-06T00:32:41;97989.72;;;13.54;100.00
45247;BME280;31529;51.158;7.354;2023-05-06T00:33:12;97995.41;;;13.53;100.00
45247;BME280;31529;51.158;7.354;2023-05-06T00:33:43;97990.03;;;13.53;100.00
45247;BME280;31529;51.158;7.354;2023-05-06T00:34:14;97986.06;;;13.50;100.00
45247;BME280;31529;51.158;7.354;2023-05-06T00:34:45;97988.72;;;13.50;100.00
45247;BME280;31529;51.158;7.354;2023-05-06T00:35:17;97990.94;;;13.48;100.00
45247;BME280;31529;51.158;7.354;2023-05-06T00:35:48;97983.19;;;13.46;100.00
45247;BME280;31529;51.158;7.354;2023-05-06T00:36:19;97984.28;;;13.45;100.00
45247;BME280;31529;51.158;7.354;2023-05-06T00:36:50;97986.19;;;13.45;100.00
45247;BME280;31529;51.158;7.354;2023-05-06T00:37:21;97983.81;;;13.43;100.00
45247;BME280;31529;51.158;7.354;2023-05-06T00:38:11;97986.00;;;13.41;100.00
45247;BME280;31529;51.158;7.354;2023-05-06T00:38:44;97979.81;;;13.41;100.00
45247;BME280;31529;51.158;7.354;2023-05-06T00:39:15;97985.19;;;13.41;100.00
45247;BME280;31529;51.158;7.354;2023-05-06T00:39:47;97984.38;;;13.40;100.00
45247;BME280;31529;51.158;7.354;2023-05-06T00:40:18;97985.19;;;13.41;100.00
45247;BME280;31529;51.158;7.354;2023-05-06T00:40:49;97981.41;;;13.42;100.00
45247;BME280;31529;51.158;7.354;2023-05-06T00:41:20;97981.41;;;13.42;100.00
45247;BME280;31529;51.158;7.354;2023-05-06T00:41:51;97982.19;;;13.42;100.00
45247;BME280;31529;51.158;7.354;2023-05-06T00:42:22;97980.31;;;13.43;100.00
45247;BME280;31529;51.158;7.354;2023-05-06T00:42:53;97983.81;;;13.43;100.00
45247;BME280;31529;51.158;7.354;2023-05-06T00:43:25;97981.13;;;13.43;100.00
45247;BME280;31529;51.158;7.354;2023-05-06T00:43:56;97908.72;;;12.93;100.00
45247;BME280;31529;51.158;7.354;2023-05-06T00:44:28;97977.63;;;13.43;100.00
45247;BME280;31529;51.158;7.354;2023-05-06T00:44:59;97977.63;;;13.43;100.00
45247;BME280;31529;51.158;7.354;2023-05-06T00:45:30;97980.31;;;13.43;100.00
45247;BME280;31529;51.158;7.354;2023-05-06T00:46:02;97979.22;;;13.44;100.00
45247;BME280;31529;51.158;7.354;2023-05-06T00:46:34;97979.22;;;13.44;100.00
45247;BME280;31529;51.158;7.354;2023-05-06T00:47:06;97976.53;;;13.44;100.00
45247;BME280;31529;51.158;7.354;2023-05-06T00:47:38;97973.06;;;13.43;100.00
45247;BME280;31529;51.158;7.354;2023-05-06T00:48:09;97982.69;;;13.44;100.00
45247;BME280;31529;51.158;7.354;2023-05-06T00:48:40;97978.44;;;13.43;100.00
45247;BME280;31529;51.158;7.354;2023-05-06T00:49:13;97979.22;;;13.44;100.00
45247;BME280;31529;51.158;7.354;2023-05-06T00:49:45;97981.91;;;13.44;100.00
45247;BME280;31529;51.158;7.354;2023-05-06T00:50:16;97975.47;;;13.45;100.00
45247;BME280;31529;51.158;7.354;2023-05-06T00:50:48;97978.44;;;13.43;100.00
45247;BME280;31529;51.158;7.354;2023-05-06T00:51:19;97978.44;;;13.43;100.00
45247;BME280;31529;51.158;7.354;2023-05-06T00:51:51;97980.81;;;13.45;100.00
45247;BME280;31529;51.158;7.354;2023-05-06T00:52:23;97979.22;;;13.44;100.00
45247;BME280;31529;51.158;7.354;2023-05-06T00:52:54;97972.78;;;13.45;100.00
45247;BME280;31529;51.158;7.354;2023-05-06T00:53:28;97978.94;;;13.45;100.00
45247;BME280;31529;51.158;7.354;2023-05-06T00:53:59;97974.66;;;13.44;100.00
45247;BME280;31529;51.158;7.354;2023-05-06T00:54:31;97978.44;;;13.43;100.00
45247;BME280;31529;51.158;7.354;2023-05-06T00:55:02;97980.81;;;13.45;100.00
45247;BME280;31529;51.158;7.354;2023-05-06T00:55:33;97980.31;;;13.43;100.00
45247;BME280;31529;51.158;7.354;2023-05-06T00:56:04;97968.50;;;13.44;100.00
45247;BME280;31529;51.158;7.354;2023-05-06T00:56:36;97978.16;;;13.45;100.00
45247;BME280;31529;51.158;7.354;2023-05-06T00:57:07;97980.81;;;13.45;100.00
45247;BME280;31529;51.158;7.354;2023-05-06T00:57:38;97982.41;;;13.46;100.00
45247;BME280;31529;51.158;7.354;2023-05-06T00:58:10;97974.34;;;13.46;100.00
45247;BME280;31529;51.158;7.354;2023-05-06T00:58:42;97977.81;;;13.46;100.00
45247;BME280;31529;51.158;7.354;2023-05-06T00:59:14;97973.28;;;13.47;100.00
45247;BME280;31529;51.158;7.354;2023-05-06T00:59:45;97975.94;;;13.47;100.00
45247;BME280;31529;51.158;7.354;2023-05-06T01:00:16;97973.28;;;13.47;100.00
45247;BME280;31529;51.158;7.354;2023-05-06T01:00:50;97978.63;;;13.47;100.00
45247;BME280;31529;51.158;7.354;2023-05-06T01:01:21;97980.19;;;13.48;100.00
45247;BME280;31529;51.158;7.354;2023-05-06T01:01:54;97973.28;;;13.47;100.00
45247;BME280;31529;51.158;7.354;2023-05-06T01:02:25;97974.84;;;13.48;100.00
45247;BME280;31529;51.158;7.354;2023-05-06T01:02:56;97975.94;;;13.47;100.00
45247;BME280;31529;51.158;7.354;2023-05-06T01:03:27;97971.38;;;13.47;100.00
45247;BME280;31529;51.158;7.354;2023-05-06T01:03:58;97973.28;;;13.47;100.00
45247;BME280;31529;51.158;7.354;2023-05-06T01:04:30;97978.94;;;13.45;100.00
45247;BME280;31529;51.158;7.354;2023-05-06T01:05:01;97976.53;;;13.44;100.00
45247;BME280;31529;51.158;7.354;2023-05-06T01:05:34;97977.63;;;13.43;100.00
45247;BME280;31529;51.158;7.354;2023-05-06T01:07:04;97979.81;;;13.41;100.00
45247;BME280;31529;51.158;7.354;2023-05-06T01:07:52;97980.94;;;13.40;100.00
45247;BME280;31529;51.158;7.354;2023-05-06T01:08:38;97978.53;;;13.38;100.00
45247;BME280;31529;51.158;7.354;2023-05-06T01:10:50;97857.78;;;12.57;100.00
45247;BME280;31529;51.158;7.354;2023-05-06T01:11:16;97976.66;;;13.39;100.00
45247;BME280;31529;51.158;7.354;2023-05-06T01:11:58;97983.59;;;13.40;100.00
45247;BME280;31529;51.158;7.354;2023-05-06T01:12:36;97982.81;;;13.39;100.00
45247;BME280;31529;51.158;7.354;2023-05-06T01:13:58;97975.88;;;13.38;100.00
45247;BME280;31529;51.158;7.354;2023-05-06T01:14:28;97976.94;;;13.37;100.00
45247;BME280;31529;51.158;7.354;2023-05-06T01:16:12;97970.31;;;13.35;100.00
45247;BME280;31529;51.158;7.354;2023-05-06T01:16:45;97974.09;;;13.34;100.00
45247;BME280;31529;51.158;7.354;2023-05-06T01:17:20;97971.41;;;13.34;100.00
45247;BME280;31529;51.158;7.354;2023-05-06T01:18:00;97977.84;;;13.33;100.00
45247;BME280;31529;51.158;7.354;2023-05-06T01:18:37;97974.69;;;13.31;100.00
45247;BME280;31529;51.158;7.354;2023-05-06T01:19:12;97972.28;;;13.29;100.00
45247;BME280;31529;51.158;7.354;2023-05-06T01:20:04;97969.88;;;13.27;100.00
45247;BME280;31529;51.158;7.354;2023-05-06T01:20:37;97968.31;;;13.26;100.00
45247;BME280;31529;51.158;7.354;2023-05-06T01:21:11;97971.00;;;13.26;100.00
45247;BME280;31529;51.158;7.354;2023-05-06T01:21:43;97973.97;;;13.25;100.00
45247;BME280;31529;51.158;7.354;2023-05-06T01:22:16;97964.31;;;13.24;100.00
45247;BME280;31529;51.158;7.354;2023-05-06T01:22:48;97972.38;;;13.24;100.00
45247;BME280;31529;51.158;7.354;2023-05-06T01:23:19;97970.50;;;13.24;100.00
45247;BME280;31529;51.158;7.354;2023-05-06T01:23:51;97969.69;;;13.24;100.00
45247;BME280;31529;51.158;7.354;2023-05-06T01:24:33;97971.59;;;13.23;100.00
45247;BME280;31529;51.158;7.354;2023-05-06T01:25:05;97976.94;;;13.23;100.00
45247;BME280;31529;51.158;7.354;2023-05-06T01:25:37;97978.06;;;13.22;100.00
45247;BME280;31529;51.158;7.354;2023-05-06T01:26:08;97969.19;;;13.22;100.00
45247;BME280;31529;51.158;7.354;2023-05-06T01:26:39;97973.28;;;13.19;100.00
45247;BME280;31529;51.158;7.354;2023-05-06T01:27:13;97978.63;;;13.19;100.00
45247;BME280;31529;51.158;7.354;2023-05-06T01:27:46;97975.97;;;13.19;100.00
45247;BME280;31529;51.158;7.354;2023-05-06T01:28:18;97979.41;;;13.20;100.00
45247;BME280;31529;51.158;7.354;2023-05-06T01:28:49;97980.53;;;13.19;100.00
45247;BME280;31529;51.158;7.354;2023-05-06T01:29:20;97972.78;;;13.17;100.00
45247;BME280;31529;51.158;7.354;2023-05-06T01:29:52;97973.88;;;13.16;100.00
45247;BME280;31529;51.158;7.354;2023-05-06T01:30:23;97970.69;;;13.14;100.00
45247;BME280;31529;51.158;7.354;2023-05-06T01:31:07;97975.56;;;13.12;100.00
45247;BME280;31529;51.158;7.354;2023-05-06T01:31:44;97968.63;;;13.11;100.00
45247;BME280;31529;51.158;7.354;2023-05-06T01:32:35;97979.66;;;13.09;100.00
45247;BME280;31529;51.158;7.354;2023-05-06T01:33:21;97983.69;;;13.07;100.00
45247;BME280;31529;51.158;7.354;2023-05-06T01:34:04;97974.09;;;13.06;100.00
45247;BME280;31529;51.158;7.354;2023-05-06T01:36:20;97971.50;;;13.01;100.00
45247;BME280;31529;51.158;7.354;2023-05-06T01:37:04;97977.97;;;13.00;100.00
45247;BME280;31529;51.158;7.354;2023-05-06T01:39:55;97976.06;;;13.00;100.00
45247;BME280;31529;51.158;7.354;2023-05-06T01:40:28;97976.06;;;13.00;100.00
45247;BME280;31529;51.158;7.354;2023-05-06T01:41:02;97984.41;;;12.99;100.00
45247;BME280;31529;51.158;7.354;2023-05-06T01:41:34;97983.63;;;12.98;100.00
45247;BME280;31529;51.158;7.354;2023-05-06T01:42:09;97980.16;;;12.98;100.00
45247;BME280;31529;51.158;7.354;2023-05-06T01:42:46;97989.56;;;12.95;100.00
45247;BME280;31529;51.158;7.354;2023-05-06T01:43:19;97983.41;;;12.95;100.00
45247;BME280;31529;51.158;7.354;2023-05-06T01:43:51;97989.06;;;12.93;100.00
45247;BME280;31529;51.158;7.354;2023-05-06T01:44:25;97987.16;;;12.94;100.00
45247;BME280;31529;51.158;7.354;2023-05-06T01:44:58;97980.25;;;12.93;100.00
45247;BME280;31529;51.158;7.354;2023-05-06T01:45:33;97984.81;;;12.92;100.00
45247;BME280;31529;51.158;7.354;2023-05-06T01:46:05;97977.06;;;12.91;100.00
45247;BME280;31529;51.158;7.354;2023-05-06T01:46:43;97981.66;;;12.90;100.00
45247;BME280;31529;51.158;7.354;2023-05-06T01:47:15;97978.16;;;12.89;100.00
45247;BME280;31529;51.158;7.354;2023-05-06T01:47:47;97976.56;;;12.88;100.00
45247;BME280;31529;51.158;7.354;2023-05-06T01:48:22;97981.13;;;12.88;100.00
45247;BME280;31529;51.158;7.354;2023-05-06T01:48:56;97976.56;;;12.88;100.00
45247;BME280;31529;51.158;7.354;2023-05-06T01:49:31;97972.28;;;12.87;100.00
45247;BME280;31529;51.158;7.354;2023-05-06T01:50:03;97974.19;;;12.87;100.00
45247;BME280;31529;51.158;7.354;2023-05-06T01:50:34;97974.97;;;12.87;100.00
45247;BME280;31529;51.158;7.354;2023-05-06T01:51:06;97973.41;;;12.86;100.00
45247;BME280;31529;51.158;7.354;2023-05-06T01:51:37;97966.44;;;12.85;100.00
45247;BME280;31529;51.158;7.354;2023-05-06T01:52:08;97893.88;;;12.32;100.00
45247;BME280;31529;51.158;7.354;2023-05-06T01:52:39;97978.28;;;12.84;100.00
45247;BME280;31529;51.158;7.354;2023-05-06T01:53:11;97977.44;;;12.84;100.00
45247;BME280;31529;51.158;7.354;2023-05-06T01:53:41;97976.16;;;12.81;100.00
45247;BME280;31529;51.158;7.354;2023-05-06T01:54:13;97979.13;;;12.80;100.00
45247;BME280;31529;51.158;7.354;2023-05-06T01:54:44;97979.44;;;12.78;100.00
45247;BME280;31529;51.158;7.354;2023-05-06T01:55:15;97976.25;;;12.76;100.00
45247;BME280;31529;51.158;7.354;2023-05-06T01:55:46;97973.88;;;12.75;100.00
45247;BME280;31529;51.158;7.354;2023-05-06T01:56:18;97971.53;;;12.73;100.00
45247;BME280;31529;51.158;7.354;2023-05-06T01:56:49;97982.22;;;12.73;100.00
45247;BME280;31529;51.158;7.354;2023-05-06T01:57:20;97977.94;;;12.72;100.00
45247;BME280;31529;51.158;7.354;2023-05-06T01:57:52;97973.69;;;12.71;100.00
45247;BME280;31529;51.158;7.354;2023-05-06T01:58:24;97974.00;;;12.69;100.00
45247;BME280;31529;51.158;7.354;2023-05-06T01:58:57;97978.53;;;12.69;100.00
45247;BME280;31529;51.158;7.354;2023-05-06T01:59:29;97981.22;;;12.69;100.00
45247;BME280;31529;51.158;7.354;2023-05-06T02:00:00;97898.69;;;12.16;100.00
45247;BME280;31529;51.158;7.354;2023-05-06T02:00:31;97978.84;;;12.67;100.00
45247;BME280;31529;51.158;7.354;2023-05-06T02:01:03;97985.28;;;12.66;100.00
45247;BME280;31529;51.158;7.354;2023-05-06T02:01:34;97978.03;;;12.67;100.00
45247;BME280;31529;51.158;7.354;2023-05-06T02:02:05;97976.47;;;12.66;100.00
45247;BME280;31529;51.158;7.354;2023-05-06T02:02:38;97979.44;;;12.64;100.00
45247;BME280;31529;51.158;7.354;2023-05-06T02:03:08;97983.19;;;12.63;100.00
45247;BME280;31529;51.158;7.354;2023-05-06T02:03:40;97986.69;;;12.64;100.00
45247;BME280;31529;51.158;7.354;2023-05-06T02:04:11;97975.47;;;12.62;100.00
45247;BME280;31529;51.158;7.354;2023-05-06T02:04:42;97976.25;;;12.62;100.00
45247;BME280;31529;51.158;7.354;2023-05-06T02:05:13;97980.00;;;12.61;100.00
45247;BME280;31529;51.158;7.354;2023-05-06T02:05:45;97978.44;;;12.60;100.00
45247;BME280;31529;51.158;7.354;2023-05-06T02:06:16;97978.44;;;12.60;100.00
45247;BME280;31529;51.158;7.354;2023-05-06T02:06:47;97983.00;;;12.60;100.00
45247;BME280;31529;51.158;7.354;2023-05-06T02:07:18;97973.38;;;12.59;100.00
45247;BME280;31529;51.158;7.354;2023-05-06T02:07:49;97974.47;;;12.58;100.00
45247;BME280;31529;51.158;7.354;2023-05-06T02:08:20;97980.91;;;12.57;100.00
45247;BME280;31529;51.158;7.354;2023-05-06T02:08:52;97965.94;;;12.56;100.00
45247;BME280;31529;51.158;7.354;2023-05-06T02:09:23;97973.16;;;12.55;100.00
45247;BME280;31529;51.158;7.354;2023-05-06T02:09:54;97975.63;;;12.52;100.00
45247;BME280;31529;51.158;7.354;2023-05-06T02:10:25;97972.47;;;12.49;100.00
45247;BME280;31529;51.158;7.354;2023-05-06T02:10:56;97971.69;;;12.49;100.00
45247;BME280;31529;51.158;7.354;2023-05-06T02:11:27;97974.06;;;12.50;100.00
45247;BME280;31529;51.158;7.354;2023-05-06T02:11:58;97972.19;;;12.51;100.00
45247;BME280;31529;51.158;7.354;2023-05-06T02:12:29;97976.75;;;12.50;100.00
45247;BME280;31529;51.158;7.354;2023-05-06T02:13:00;97972.19;;;12.51;100.00
45247;BME280;31529;51.158;7.354;2023-05-06T02:13:31;97974.06;;;12.50;100.00
45247;BME280;31529;51.158;7.354;2023-05-06T02:14:02;97972.47;;;12.49;100.00
45247;BME280;31529;51.158;7.354;2023-05-06T02:14:33;97974.66;;;12.47;100.00
45247;BME280;31529;51.158;7.354;2023-05-06T02:15:05;97976.53;;;12.47;100.00
45247;BME280;31529;51.158;7.354;2023-05-06T02:15:36;97969.88;;;12.44;100.00
45247;BME280;31529;51.158;7.354;2023-05-06T02:16:07;97894.50;;;11.96;100.00
45247;BME280;31529;51.158;7.354;2023-05-06T02:16:38;97973.94;;;12.42;100.00
45247;BME280;31529;51.158;7.354;2023-05-06T02:17:09;97971.56;;;12.40;100.00
45247;BME280;31529;51.158;7.354;2023-05-06T02:17:40;97967.59;;;12.38;100.00
45247;BME280;31529;51.158;7.354;2023-05-06T02:18:13;97968.16;;;12.35;100.00
45247;BME280;31529;51.158;7.354;2023-05-06T02:18:44;97974.63;;;12.34;100.00
45247;BME280;31529;51.158;7.354;2023-05-06T02:19:15;97972.53;;;12.30;100.00
45247;BME280;31529;51.158;7.354;2023-05-06T02:19:46;97971.75;;;12.30;100.00
45247;BME280;31529;51.158;7.354;2023-05-06T02:20:17;97980.06;;;12.28;100.00
45247;BME280;31529;51.158;7.354;2023-05-06T02:20:48;97975.00;;;12.27;100.00
45247;BME280;31529;51.158;7.354;2023-05-06T02:21:19;97979.06;;;12.24;100.00
45247;BME280;31529;51.158;7.354;2023-05-06T02:21:50;97976.66;;;12.23;100.00
45247;BME280;31529;51.158;7.354;2023-05-06T02:22:21;97974.28;;;12.21;100.00
45247;BME280;31529;51.158;7.354;2023-05-06T02:22:52;97972.72;;;12.20;100.00
45247;BME280;31529;51.158;7.354;2023-05-06T02:23:24;97972.72;;;12.20;100.00
45247;BME280;31529;51.158;7.354;2023-05-06T02:23:55;97969.53;;;12.18;100.00
45247;BME280;31529;51.158;7.354;2023-05-06T02:24:26;97976.75;;;12.18;100.00
45247;BME280;31529;51.158;7.354;2023-05-06T02:24:57;97973.56;;;12.16;100.00
45247;BME280;31529;51.158;7.354;2023-05-06T02:25:28;97972.00;;;12.15;100.00
45247;BME280;31529;51.158;7.354;2023-05-06T02:25:59;97974.97;;;12.13;100.00
45247;BME280;31529;51.158;7.354;2023-05-06T02:26:30;97970.69;;;12.12;100.00
45247;BME280;31529;51.158;7.354;2023-05-06T02:27:01;97972.06;;;12.09;100.00
45247;BME280;31529;51.158;7.354;2023-05-06T02:27:34;97973.19;;;12.08;100.00
45247;BME280;31529;51.158;7.354;2023-05-06T02:28:05;97974.25;;;12.07;100.00
45247;BME280;31529;51.158;7.354;2023-05-06T02:28:36;97971.88;;;12.06;100.00
45247;BME280;31529;51.158;7.354;2023-05-06T02:29:07;97966.81;;;12.04;100.00
45247;BME280;31529;51.158;7.354;2023-05-06T02:29:38;97970.56;;;12.03;100.00
45247;BME280;31529;51.158;7.354;2023-05-06T02:30:09;97970.09;;;12.01;100.00
45247;BME280;31529;51.158;7.354;2023-05-06T02:30:41;97976.78;;;11.99;100.00
45247;BME280;31529;51.158;7.354;2023-05-06T02:31:13;97971.75;;;11.97;100.00
45247;BME280;31529;51.158;7.354;2023-05-06T02:31:45;97969.38;;;11.96;100.00
45247;BME280;31529;51.158;7.354;2023-05-06T02:32:16;97973.13;;;11.95;100.00
45247;BME280;31529;51.158;7.354;2023-05-06T02:32:47;97970.72;;;11.93;100.00
45247;BME280;31529;51.158;7.354;2023-05-06T02:33:18;97969.94;;;11.93;100.00
45247;BME280;31529;51.158;7.354;2023-05-06T02:33:49;97969.44;;;11.90;100.00
45247;BME280;31529;51.158;7.354;2023-05-06T02:34:20;97965.19;;;11.89;100.00
45247;BME280;31529;51.158;7.354;2023-05-06T02:34:52;97967.31;;;11.87;100.00
45247;BME280;31529;51.158;7.354;2023-05-06T02:35:23;97971.06;;;11.86;100.00
45247;BME280;31529;51.158;7.354;2023-05-06T02:35:54;97971.38;;;11.85;100.00
45247;BME280;31529;51.158;7.354;2023-05-06T02:36:25;97975.41;;;11.82;100.00
45247;BME280;31529;51.158;7.354;2023-05-06T02:36:57;97970.38;;;11.81;100.00
45247;BME280;31529;51.158;7.354;2023-05-06T02:37:28;97971.16;;;11.81;100.00
45247;BME280;31529;51.158;7.354;2023-05-06T02:37:59;97972.53;;;11.79;100.00
45247;BME280;31529;51.158;7.354;2023-05-06T02:38:30;97978.66;;;11.79;100.00
45247;BME280;31529;51.158;7.354;2023-05-06T02:39:01;97970.94;;;11.78;100.00
45247;BME280;31529;51.158;7.354;2023-05-06T02:39:32;97969.06;;;11.78;100.00
45247;BME280;31529;51.158;7.354;2023-05-06T02:40:04;97973.09;;;11.76;100.00
45247;BME280;31529;51.158;7.354;2023-05-06T02:40:36;97966.69;;;11.77;100.00
45247;BME280;31529;51.158;7.354;2023-05-06T02:41:07;97968.56;;;11.76;100.00
45247;BME280;31529;51.158;7.354;2023-05-06T02:41:38;97965.91;;;11.76;100.00
45247;BME280;31529;51.158;7.354;2023-05-06T02:42:12;97969.66;;;11.75;100.00
45247;BME280;31529;51.158;7.354;2023-05-06T02:42:44;97966.19;;;11.75;100.00
45247;BME280;31529;51.158;7.354;2023-05-06T02:43:15;97966.19;;;11.75;100.00
45247;BME280;31529;51.158;7.354;2023-05-06T02:43:46;97968.84;;;11.75;100.00
45247;BME280;31529;51.158;7.354;2023-05-06T02:44:17;97963.00;;;11.72;100.00
45247;BME280;31529;51.158;7.354;2023-05-06T02:44:48;97969.44;;;11.71;100.00
45247;BME280;31529;51.158;7.354;2023-05-06T02:45:20;97967.53;;;11.72;100.00
45247;BME280;31529;51.158;7.354;2023-05-06T02:45:51;97965.97;;;11.71;100.00
45247;BME280;31529;51.158;7.354;2023-05-06T02:46:22;97971.59;;;11.69;100.00
45247;BME280;31529;51.158;7.354;2023-05-06T02:46:53;97971.59;;;11.69;100.00
45247;BME280;31529;51.158;7.354;2023-05-06T02:47:24;97967.31;;;11.68;100.00
45247;BME280;31529;51.158;7.354;2023-05-06T02:47:55;97971.09;;;11.67;100.00
45247;BME280;31529;51.158;7.354;2023-05-06T02:48:26;97966.81;;;11.66;100.00
45247;BME280;31529;51.158;7.354;2023-05-06T02:48:57;97970.59;;;11.65;100.00
45247;BME280;31529;51.158;7.354;2023-05-06T02:49:28;97963.66;;;11.64;100.00
45247;BME280;31529;51.158;7.354;2023-05-06T02:49:59;97965.81;;;11.62;100.00
45247;BME280;31529;51.158;7.354;2023-05-06T02:50:30;97969.28;;;11.63;100.00
45247;BME280;31529;51.158;7.354;2023-05-06T02:51:01;97971.16;;;11.62;100.00
45247;BME280;31529;51.158;7.354;2023-05-06T02:51:33;97968.50;;;11.62;100.00
45247;BME280;31529;51.158;7.354;2023-05-06T02:52:04;97966.91;;;11.61;100.00
45247;BME280;31529;51.158;7.354;2023-05-06T02:52:35;97965.03;;;11.62;100.00
45247;BME280;31529;51.158;7.354;2023-05-06T02:53:06;97966.91;;;11.61;100.00
45247;BME280;31529;51.158;7.354;2023-05-06T02:53:38;97965.31;;;11.60;100.00
45247;BME280;31529;51.158;7.354;2023-05-06T02:54:09;97965.31;;;11.60;100.00
45247;BME280;31529;51.158;7.354;2023-05-06T02:54:40;97967.97;;;11.60;100.00
45247;BME280;31529;51.158;7.354;2023-05-06T02:55:12;97964.03;;;11.58;100.00
45247;BME280;31529;51.158;7.354;2023-05-06T02:55:43;97962.94;;;11.59;100.00
45247;BME280;31529;51.158;7.354;2023-05-06T02:56:14;97971.22;;;11.57;100.00
45247;BME280;31529;51.158;7.354;2023-05-06T02:56:45;97965.38;;;11.55;100.00